createdAt,value
2022-11-08T12:47:53.925Z,1000.84
2022-11-08T12:48:55.108Z,1000.80
2022-11-08T12:49:55.784Z,1000.79
2022-11-08T12:50:57.595Z,1000.76
2022-11-08T12:51:55.249Z,1000.73
2022-11-08T12:52:55.283Z,1000.72
2022-11-08T12:53:55.369Z,1000.70
2022-11-08T12:54:55.441Z,1000.70
2022-11-08T12:55:55.512Z,1000.70
2022-11-08T12:56:55.631Z,1000.62
2022-11-08T12:57:55.663Z,1000.59
2022-11-08T12:58:55.747Z,1000.57
2022-11-08T12:59:55.820Z,1000.60
2022-11-08T13:00:55.970Z,1000.56
2022-11-08T13:01:56.007Z,1000.54
2022-11-08T13:02:56.074Z,1000.50
2022-11-08T13:03:56.183Z,1000.52
2022-11-08T13:04:56.275Z,1000.49
2022-11-08T13:05:56.341Z,1000.48
2022-11-08T13:06:56.488Z,1000.48
2022-11-08T13:07:56.507Z,1000.48
2022-11-08T13:08:56.590Z,1000.47
2022-11-08T13:09:56.659Z,1000.50
2022-11-08T13:10:56.762Z,1000.44
2022-11-08T13:11:56.865Z,1000.46
2022-11-08T13:12:56.954Z,1000.41
2022-11-08T13:13:56.994Z,1000.40
2022-11-08T13:14:57.070Z,1000.39
2022-11-08T13:15:57.146Z,1000.39
2022-11-08T13:16:57.226Z,1000.36
2022-11-08T13:17:57.296Z,1000.38
2022-11-08T13:18:57.375Z,1000.38
2022-11-08T13:20:00.796Z,1000.42
2022-11-08T13:20:57.572Z,1000.44
2022-11-08T13:21:57.644Z,1000.47
2022-11-08T13:22:57.732Z,1000.49
2022-11-08T13:23:57.826Z,1000.49
2022-11-08T13:24:57.905Z,1000.47
2022-11-08T13:25:58.000Z,1000.48
2022-11-08T13:26:59.650Z,1000.48
2022-11-08T13:27:58.156Z,1000.47
2022-11-08T13:28:58.251Z,1000.45
2022-11-08T13:29:58.336Z,1000.45
2022-11-08T13:30:58.418Z,1000.43
2022-11-08T13:31:58.491Z,1000.39
2022-11-08T13:32:58.581Z,1000.39
2022-11-08T13:33:58.660Z,1000.38
2022-11-08T13:34:58.748Z,1000.38
2022-11-08T13:35:58.836Z,1000.33
2022-11-08T13:36:58.928Z,1000.34
2022-11-08T13:37:58.978Z,1000.33
2022-11-08T13:38:59.078Z,1000.34
2022-11-08T13:39:59.142Z,1000.32
2022-11-08T13:40:59.214Z,1000.29
2022-11-08T13:41:59.304Z,1000.30
2022-11-08T13:42:59.398Z,1000.32
2022-11-08T13:43:59.427Z,1000.32
2022-11-08T13:44:59.508Z,1000.31
2022-11-08T13:45:59.581Z,1000.32
2022-11-08T13:46:59.656Z,1000.31
2022-11-08T13:47:59.764Z,1000.29
2022-11-08T13:48:59.841Z,1000.29
2022-11-08T13:49:59.925Z,1000.30
2022-11-08T13:50:59.999Z,1000.31
2022-11-08T13:52:00.090Z,1000.23
2022-11-08T13:53:00.173Z,1000.18
2022-11-08T13:54:00.240Z,1000.19
2022-11-08T13:55:00.307Z,1000.22
2022-11-08T13:56:00.382Z,1000.20
2022-11-08T13:57:00.460Z,1000.20
2022-11-08T13:58:00.559Z,1000.17
2022-11-08T13:59:00.636Z,1000.14
2022-11-08T14:00:00.709Z,1000.16
2022-11-08T14:01:00.951Z,1000.14
2022-11-08T14:02:00.848Z,1000.07
2022-11-08T14:03:00.938Z,1000.11
2022-11-08T14:04:01.001Z,1000.05
2022-11-08T14:05:01.088Z,1000.09
2022-11-08T14:06:01.164Z,1000.04
2022-11-08T14:07:01.339Z,1000.04
2022-11-08T14:08:01.352Z,1000.00
2022-11-08T14:09:01.507Z,999.93
2022-11-08T14:10:01.554Z,999.94
2022-11-08T14:11:01.632Z,999.99
2022-11-08T14:12:01.697Z,1000.00
2022-11-08T14:13:01.762Z,1000.00
2022-11-08T14:14:01.836Z,999.98
2022-11-08T14:15:01.926Z,999.99
2022-11-08T14:16:01.992Z,999.95
2022-11-08T14:17:02.051Z,999.98
2022-11-08T14:18:02.164Z,999.90
2022-11-08T14:19:02.229Z,999.92
2022-11-08T14:20:02.348Z,999.96
2022-11-08T14:21:02.416Z,999.97
2022-11-08T14:22:02.513Z,999.99
2022-11-08T14:23:02.566Z,999.99
2022-11-08T14:24:02.636Z,999.98
2022-11-08T14:25:02.752Z,1000.00
2022-11-08T14:26:02.837Z,1000.02
2022-11-08T14:27:02.919Z,1000.00
2022-11-08T14:28:02.996Z,1000.01
2022-11-08T14:29:03.072Z,1000.07
2022-11-08T14:30:03.138Z,1000.09
2022-11-08T14:31:03.224Z,1000.08
2022-11-08T14:32:03.296Z,1000.14
2022-11-08T14:33:03.377Z,1000.11
2022-11-08T14:34:03.467Z,1000.18
2022-11-08T14:35:03.537Z,1000.17
2022-11-08T14:36:03.643Z,1000.23
2022-11-08T14:37:03.717Z,1000.21
2022-11-08T14:38:03.792Z,1000.21
2022-11-08T14:39:03.874Z,1000.22
2022-11-08T14:40:03.953Z,1000.20
2022-11-08T14:41:04.041Z,1000.19
2022-11-08T14:42:04.108Z,1000.14
2022-11-08T14:43:04.181Z,1000.12
2022-11-08T14:44:04.261Z,1000.15
2022-11-08T14:45:04.329Z,1000.07
2022-11-08T14:46:04.410Z,1000.14
2022-11-08T14:47:04.484Z,1000.08
2022-11-08T14:48:04.569Z,1000.10
2022-11-08T14:49:04.653Z,1000.13
2022-11-08T14:50:04.766Z,1000.13
2022-11-08T14:51:04.823Z,1000.10
2022-11-08T14:52:07.699Z,1000.13
2022-11-08T14:53:04.987Z,1000.10
2022-11-08T14:54:05.063Z,1000.12
2022-11-08T14:55:05.159Z,1000.11
2022-11-08T14:56:05.248Z,1000.08
2022-11-08T14:57:05.329Z,1000.16
2022-11-08T14:58:05.403Z,1000.16
2022-11-08T14:59:05.487Z,1000.11
2022-11-08T15:00:05.656Z,1000.17
2022-11-08T15:01:05.738Z,1000.11
2022-11-08T15:02:05.776Z,1000.16
2022-11-08T15:03:05.833Z,1000.18
2022-11-08T15:04:05.934Z,1000.18
2022-11-08T15:05:06.009Z,1000.21
2022-11-08T15:06:10.938Z,1000.22
2022-11-08T15:07:06.232Z,1000.21
2022-11-08T15:08:06.268Z,1000.20
2022-11-08T15:09:06.338Z,1000.21
2022-11-08T15:10:06.547Z,1000.19
2022-11-08T15:11:13.374Z,1000.25
2022-11-08T15:12:06.602Z,1000.20
2022-11-08T15:13:06.701Z,1000.22
2022-11-08T15:14:06.779Z,1000.25
2022-11-08T15:15:06.852Z,1000.23
2022-11-08T15:16:06.982Z,1000.23
2022-11-08T15:17:06.999Z,1000.20
2022-11-08T15:18:07.527Z,1000.20
2022-11-08T15:19:07.187Z,1000.19
2022-11-08T15:20:07.266Z,1000.17
2022-11-08T15:21:07.336Z,1000.14
2022-11-08T15:22:07.447Z,1000.12
2022-11-08T15:23:07.639Z,1000.14
2022-11-08T15:24:07.586Z,1000.17
2022-11-08T15:25:07.656Z,1000.15
2022-11-08T15:26:07.733Z,1000.19
2022-11-08T15:27:07.804Z,1000.11
2022-11-08T15:28:07.896Z,1000.14
2022-11-08T15:29:07.952Z,1000.16
2022-11-08T15:30:08.027Z,1000.17
2022-11-08T15:31:08.112Z,1000.16
2022-11-08T15:32:08.212Z,1000.13
2022-11-08T15:33:08.331Z,1000.17
2022-11-08T15:34:08.396Z,1000.16
2022-11-08T15:35:08.473Z,1000.19
2022-11-08T15:36:08.544Z,1000.18
2022-11-08T15:37:13.745Z,1000.20
2022-11-08T15:38:08.703Z,1000.19
2022-11-08T15:39:08.777Z,1000.17
2022-11-08T15:40:08.858Z,1000.24
2022-11-08T15:41:08.940Z,1000.24
2022-11-08T15:42:09.017Z,1000.19
2022-11-08T15:43:09.109Z,1000.18
2022-11-08T15:44:09.181Z,1000.18
2022-11-08T15:45:09.254Z,1000.18
2022-11-08T15:46:09.454Z,1000.16
2022-11-08T15:47:09.399Z,1000.16
2022-11-08T15:48:09.471Z,1000.16
2022-11-08T15:49:09.560Z,1000.16
2022-11-08T15:50:09.648Z,1000.14
2022-11-08T15:51:09.724Z,1000.13
2022-11-08T15:52:09.798Z,1000.11
2022-11-08T15:53:09.872Z,1000.16
2022-11-08T15:54:10.105Z,1000.17
2022-11-08T15:55:10.029Z,1000.13
2022-11-08T15:56:10.105Z,1000.18
2022-11-08T15:57:10.219Z,1000.18
2022-11-08T15:58:10.251Z,1000.17
2022-11-08T15:59:10.329Z,1000.17
2022-11-08T16:00:10.420Z,1000.19
2022-11-08T16:01:10.570Z,1000.21
2022-11-08T16:02:10.623Z,1000.21
2022-11-08T16:03:10.636Z,1000.22
2022-11-08T16:04:10.729Z,1000.21
2022-11-08T16:05:10.889Z,1000.23
2022-11-08T16:06:10.893Z,1000.22
2022-11-08T16:07:11.006Z,1000.24
2022-11-08T16:08:13.337Z,1000.22
2022-11-08T16:09:11.176Z,1000.22
2022-11-08T16:10:11.275Z,1000.17
2022-11-08T16:11:11.354Z,1000.18
2022-11-08T16:12:11.435Z,1000.16
2022-11-08T16:13:11.508Z,1000.17
2022-11-08T16:14:11.591Z,1000.16
2022-11-08T16:15:11.687Z,1000.19
2022-11-08T16:16:11.777Z,1000.15
2022-11-08T16:17:11.879Z,1000.11
2022-11-08T16:18:11.931Z,1000.13
2022-11-08T16:19:12.013Z,1000.13
2022-11-08T16:20:12.111Z,1000.10
2022-11-08T16:21:12.191Z,1000.15
2022-11-08T16:22:16.800Z,1000.14
2022-11-08T16:23:12.372Z,1000.09
2022-11-08T16:24:12.441Z,1000.03
2022-11-08T16:25:12.503Z,999.98
2022-11-08T16:26:12.632Z,999.92
2022-11-08T16:27:12.692Z,999.99
2022-11-08T16:28:12.770Z,1000.06
2022-11-08T16:29:12.845Z,1000.08
2022-11-08T16:30:12.933Z,1000.08
2022-11-08T16:31:13.017Z,1000.10
2022-11-08T16:32:13.087Z,1000.14
2022-11-08T16:33:13.156Z,1000.14
2022-11-08T16:34:13.231Z,1000.09
2022-11-08T16:35:13.300Z,1000.12
2022-11-08T16:36:13.401Z,1000.07
2022-11-08T16:37:13.475Z,1000.10
2022-11-08T16:38:13.549Z,1000.13
2022-11-08T16:39:13.635Z,1000.17
2022-11-08T16:40:13.691Z,1000.16
2022-11-08T16:41:13.786Z,1000.20
2022-11-08T16:42:13.868Z,1000.23
2022-11-08T16:43:14.966Z,1000.20
2022-11-08T16:44:14.033Z,1000.25
2022-11-08T16:45:14.111Z,1000.24
2022-11-08T16:46:14.200Z,1000.28
2022-11-08T16:47:14.275Z,1000.23
2022-11-08T16:48:14.398Z,1000.21
2022-11-08T16:49:14.436Z,1000.24
2022-11-08T16:50:14.517Z,1000.19
2022-11-08T16:51:14.612Z,1000.20
2022-11-08T16:52:14.699Z,1000.15
2022-11-08T16:53:14.784Z,1000.22
2022-11-08T16:54:14.862Z,1000.25
2022-11-08T16:55:17.596Z,1000.26
2022-11-08T16:56:15.011Z,1000.24
2022-11-08T16:57:33.773Z,1000.33
2022-11-08T16:58:15.525Z,1000.32
2022-11-08T16:59:15.255Z,1000.30
2022-11-08T17:00:15.350Z,1000.31
2022-11-08T17:01:15.473Z,1000.37
2022-11-08T17:02:15.515Z,1000.36
2022-11-08T17:03:15.585Z,1000.35
2022-11-08T17:04:15.666Z,1000.34
2022-11-08T17:05:15.739Z,1000.31
2022-11-08T17:06:15.845Z,1000.31
2022-11-08T17:07:15.941Z,1000.35
2022-11-08T17:08:16.376Z,1000.31
2022-11-08T17:09:16.110Z,1000.15
2022-11-08T17:10:16.193Z,1000.26
2022-11-08T17:11:16.270Z,1000.24
2022-11-08T17:12:16.882Z,1000.30
2022-11-08T17:13:16.458Z,1000.21
2022-11-08T17:14:16.534Z,1000.16
2022-11-08T17:15:16.632Z,1000.13
2022-11-08T17:16:16.732Z,1000.18
2022-11-08T17:17:16.810Z,1000.14
2022-11-08T17:18:19.625Z,1000.11
2022-11-08T17:19:16.955Z,1000.07
2022-11-08T17:20:17.031Z,1000.11
2022-11-08T17:21:42.935Z,1000.05
2022-11-08T17:22:17.196Z,999.98
2022-11-08T17:23:17.271Z,1000.02
2022-11-08T17:24:21.840Z,1000.01
2022-11-08T17:25:17.448Z,999.90
2022-11-08T17:26:17.533Z,999.92
2022-11-08T17:27:17.609Z,999.91
2022-11-08T17:28:18.187Z,999.86
2022-11-08T17:29:17.750Z,999.85
2022-11-08T17:30:21.250Z,999.84
2022-11-08T17:31:17.967Z,999.80
2022-11-08T17:32:18.039Z,999.86
2022-11-08T17:33:18.453Z,999.89
2022-11-08T17:34:18.188Z,999.95
2022-11-08T17:35:18.300Z,999.90
2022-11-08T17:36:18.388Z,999.77
2022-11-08T17:37:18.460Z,999.82
2022-11-08T17:38:18.535Z,999.82
2022-11-08T17:39:18.607Z,999.77
2022-11-08T17:40:18.708Z,999.79
2022-11-08T17:41:18.786Z,999.72
2022-11-08T17:42:18.882Z,999.73
2022-11-08T17:43:19.432Z,999.81
2022-11-08T17:44:19.033Z,999.81
2022-11-08T17:45:19.094Z,999.89
2022-11-08T17:46:19.253Z,999.84
2022-11-08T17:47:19.237Z,999.94
2022-11-08T17:48:19.302Z,999.97
2022-11-08T17:49:19.374Z,1000.01
2022-11-08T17:50:19.446Z,1000.03
2022-11-08T17:51:19.527Z,1000.10
2022-11-08T17:52:19.618Z,1000.13
2022-11-08T17:53:20.074Z,1000.14
2022-11-08T17:54:19.788Z,1000.15
2022-11-08T17:55:19.864Z,1000.14
2022-11-08T17:56:20.064Z,1000.16
2022-11-08T17:57:20.045Z,1000.19
2022-11-08T17:58:20.128Z,1000.18
2022-11-08T17:59:20.204Z,1000.25
2022-11-08T18:00:20.268Z,1000.22
2022-11-08T18:01:20.488Z,1000.30
2022-11-08T18:02:20.747Z,1000.28
2022-11-08T18:03:20.880Z,1000.31
2022-11-08T18:04:20.609Z,1000.28
2022-11-08T18:05:20.676Z,1000.25
2022-11-08T18:06:20.745Z,1000.30
2022-11-08T18:07:20.965Z,1000.38
2022-11-08T18:08:26.492Z,1000.34
2022-11-08T18:09:20.975Z,1000.31
2022-11-08T18:10:21.058Z,1000.32
2022-11-08T18:11:21.129Z,1000.27
2022-11-08T18:12:21.230Z,1000.28
2022-11-08T18:13:21.666Z,1000.30
2022-11-08T18:14:27.108Z,1000.27
2022-11-08T18:15:21.491Z,1000.26
2022-11-08T18:16:21.570Z,1000.25
2022-11-08T18:17:21.664Z,1000.26
2022-11-08T18:18:21.750Z,1000.34
2022-11-08T18:19:21.827Z,1000.27
2022-11-08T18:20:21.915Z,1000.26
2022-11-08T18:21:21.995Z,1000.29
2022-11-08T18:22:22.099Z,1000.17
2022-11-08T18:23:22.254Z,1000.32
2022-11-08T18:24:22.232Z,1000.34
2022-11-08T18:25:22.305Z,1000.35
2022-11-08T18:26:22.390Z,1000.31
2022-11-08T18:27:22.509Z,1000.36
2022-11-08T18:28:22.537Z,1000.37
2022-11-08T18:29:22.616Z,1000.38
2022-11-08T18:30:22.704Z,1000.35
2022-11-08T18:31:22.836Z,1000.36
2022-11-08T18:32:22.883Z,1000.35
2022-11-08T18:33:23.087Z,1000.44
2022-11-08T18:34:23.021Z,1000.42
2022-11-08T18:35:23.093Z,1000.39
2022-11-08T18:36:23.184Z,1000.46
2022-11-08T18:37:23.302Z,1000.46
2022-11-08T18:38:23.334Z,1000.48
2022-11-08T18:39:23.408Z,1000.37
2022-11-08T18:40:23.484Z,1000.41
2022-11-08T18:41:23.557Z,1000.42
2022-11-08T18:42:23.652Z,1000.38
2022-11-08T18:43:23.732Z,1000.40
2022-11-08T18:44:23.816Z,1000.31
2022-11-08T18:45:23.892Z,1000.38
2022-11-08T18:46:23.993Z,1000.38
2022-11-08T18:47:24.079Z,1000.38
2022-11-08T18:48:24.149Z,1000.36
2022-11-08T18:49:24.238Z,1000.37
2022-11-08T18:50:24.317Z,1000.36
2022-11-08T18:51:24.387Z,1000.31
2022-11-08T18:52:24.497Z,1000.33
2022-11-08T18:53:24.522Z,1000.31
2022-11-08T18:54:24.598Z,1000.32
2022-11-08T18:55:24.680Z,1000.30
2022-11-08T18:56:24.770Z,1000.25
2022-11-08T18:57:24.943Z,1000.24
2022-11-08T18:58:24.953Z,1000.17
2022-11-08T18:59:25.040Z,1000.27
2022-11-08T19:00:25.124Z,1000.22
2022-11-08T19:01:25.272Z,1000.24
2022-11-08T19:02:25.312Z,1000.24
2022-11-08T19:03:25.385Z,1000.21
2022-11-08T19:04:25.465Z,1000.25
2022-11-08T19:05:25.541Z,1000.29
2022-11-08T19:06:25.638Z,1000.26
2022-11-08T19:07:25.713Z,1000.35
2022-11-08T19:08:25.784Z,1000.33
2022-11-08T19:09:25.899Z,1000.31
2022-11-08T19:10:25.964Z,1000.34
2022-11-08T19:11:26.045Z,1000.36
2022-11-08T19:12:26.140Z,1000.40
2022-11-08T19:13:26.228Z,1000.31
2022-11-08T19:14:26.306Z,1000.36
2022-11-08T19:15:26.403Z,1000.40
2022-11-08T19:16:26.489Z,1000.38
2022-11-08T19:17:26.563Z,1000.34
2022-11-08T19:18:26.682Z,1000.32
2022-11-08T19:19:26.742Z,1000.31
2022-11-08T19:20:26.815Z,1000.31
2022-11-08T19:21:26.897Z,1000.22
2022-11-08T19:22:26.971Z,1000.26
2022-11-08T19:23:27.061Z,1000.30
2022-11-08T19:24:27.128Z,1000.25
2022-11-08T19:25:27.219Z,1000.30
2022-11-08T19:26:27.291Z,1000.24
2022-11-08T19:27:27.363Z,1000.25
2022-11-08T19:28:32.472Z,1000.27
2022-11-08T19:29:27.521Z,1000.13
2022-11-08T19:30:27.616Z,1000.14
2022-11-08T19:31:27.701Z,1000.14
2022-11-08T19:32:27.791Z,1000.15
2022-11-08T19:33:27.872Z,1000.11
2022-11-08T19:34:28.021Z,1000.04
2022-11-08T19:35:28.061Z,1000.08
2022-11-08T19:36:28.136Z,1000.14
2022-11-08T19:37:28.217Z,1000.09
2022-11-08T19:38:28.299Z,1000.12
2022-11-08T19:39:28.374Z,1000.09
2022-11-08T19:40:32.066Z,1000.05
2022-11-08T19:41:28.523Z,1000.06
2022-11-08T19:42:28.601Z,1000.08
2022-11-08T19:43:28.691Z,1000.07
2022-11-08T19:44:28.815Z,1000.13
2022-11-08T19:45:28.866Z,1000.12
2022-11-08T19:46:29.139Z,1000.11
2022-11-08T19:47:28.992Z,1000.12
2022-11-08T19:48:29.078Z,1000.11
2022-11-08T19:49:29.182Z,1000.14
2022-11-08T19:50:29.219Z,1000.20
2022-11-08T19:51:29.294Z,1000.23
2022-11-08T19:52:29.369Z,1000.15
2022-11-08T19:53:29.449Z,1000.17
2022-11-08T19:54:29.544Z,1000.16
2022-11-08T19:55:29.621Z,1000.10
2022-11-08T19:56:57.839Z,1000.12
2022-11-08T19:57:29.817Z,1000.09
2022-11-08T19:58:29.885Z,1000.10
2022-11-08T19:59:29.986Z,1000.04
2022-11-08T20:00:30.068Z,1000.07
2022-11-08T20:01:30.192Z,1000.14
2022-11-08T20:02:30.241Z,1000.12
2022-11-08T20:03:30.331Z,1000.16
2022-11-08T20:04:30.421Z,1000.11
2022-11-08T20:05:30.514Z,1000.14
2022-11-08T20:06:30.641Z,1000.16
2022-11-08T20:07:30.692Z,1000.17
2022-11-08T20:08:30.765Z,1000.21
2022-11-08T20:09:31.228Z,1000.24
2022-11-08T20:10:30.926Z,1000.23
2022-11-08T20:11:31.002Z,1000.20
